createdAt,value
2019-04-20T00:00:01.674Z,21.00
2019-04-20T00:02:08.302Z,20.99
2019-04-20T00:04:01.206Z,20.97
2019-04-20T00:06:03.521Z,20.98
2019-04-20T00:08:08.953Z,21.03
2019-04-20T00:10:10.892Z,21.08
2019-04-20T00:12:16.898Z,21.09
2019-04-20T00:14:16.211Z,21.09
2019-04-20T00:16:11.068Z,21.09
2019-04-20T00:18:13.494Z,21.20
2019-04-20T00:20:20.672Z,21.24
2019-04-20T00:22:40.235Z,21.24
2019-04-20T00:24:35.891Z,21.28
2019-04-20T00:27:04.463Z,21.25
2019-04-20T00:28:57.166Z,21.25
2019-04-20T00:30:57.080Z,21.27
2019-04-20T00:32:53.364Z,21.30
2019-04-20T00:34:45.304Z,21.30
2019-04-20T00:36:43.465Z,21.22
2019-04-20T00:38:51.000Z,21.21
2019-04-20T00:40:53.842Z,21.20
2019-04-20T00:42:52.503Z,21.20
2019-04-20T00:44:56.398Z,21.17
2019-04-20T00:47:04.899Z,21.14
2019-04-20T00:49:01.589Z,21.10
2019-04-20T00:51:17.220Z,21.09
2019-04-20T00:53:08.123Z,21.06
2019-04-20T00:54:58.396Z,21.05
2019-04-20T00:57:12.062Z,21.07
2019-04-20T00:59:13.085Z,21.17
2019-04-20T01:01:20.563Z,21.20
2019-04-20T01:03:20.924Z,21.22
2019-04-20T01:05:22.971Z,21.25
2019-04-20T01:07:23.237Z,21.29
2019-04-20T01:09:14.006Z,21.28
2019-04-20T01:11:16.766Z,21.30
2019-04-20T01:13:20.154Z,21.27
2019-04-20T01:15:31.937Z,21.25
2019-04-20T01:17:19.340Z,21.20
2019-04-20T01:19:20.954Z,21.17
2019-04-20T01:21:26.440Z,21.14
2019-04-20T01:23:33.146Z,21.11
2019-04-20T01:25:32.315Z,21.09
2019-04-20T01:27:39.809Z,21.04
2019-04-20T01:29:36.913Z,21.06
2019-04-20T01:31:38.343Z,21.11
2019-04-20T01:33:42.624Z,21.17
2019-04-20T01:35:48.894Z,21.25
2019-04-20T01:37:52.741Z,21.28
2019-04-20T01:39:45.195Z,21.27
2019-04-20T01:41:39.381Z,21.30
2019-04-20T01:43:41.560Z,21.31
2019-04-20T01:45:44.003Z,21.29
2019-04-20T01:47:50.291Z,21.29
2019-04-20T01:49:49.700Z,21.30
2019-04-20T01:51:57.709Z,21.32
2019-04-20T01:54:06.770Z,21.32
2019-04-20T01:56:07.217Z,21.36
2019-04-20T01:58:11.626Z,21.26
2019-04-20T02:00:22.648Z,21.49
2019-04-20T02:02:19.354Z,21.53
2019-04-20T02:04:24.767Z,21.59
2019-04-20T02:06:23.160Z,21.64
2019-04-20T02:08:25.861Z,21.70
2019-04-20T02:10:33.272Z,21.73
2019-04-20T02:12:30.718Z,21.80
2019-04-20T02:14:37.066Z,21.85
2019-04-20T02:16:37.199Z,21.86
2019-04-20T02:18:42.076Z,21.86
2019-04-20T02:20:48.490Z,21.90
2019-04-20T02:22:51.606Z,21.92
2019-04-20T02:24:36.967Z,21.95
2019-04-20T02:26:37.292Z,21.96
2019-04-20T02:29:07.983Z,21.97
2019-04-20T02:31:19.869Z,21.97
2019-04-20T02:35:36.470Z,22.02
2019-04-20T02:37:44.561Z,21.97
2019-04-20T02:41:47.627Z,21.90
2019-04-20T02:43:48.360Z,21.92
2019-04-20T02:47:46.055Z,21.91
2019-04-20T02:49:45.410Z,21.86
2019-04-20T02:51:41.181Z,21.85
2019-04-20T02:53:51.182Z,21.84
2019-04-20T02:55:48.449Z,21.81
2019-04-20T02:57:54.839Z,21.80
2019-04-20T03:00:01.116Z,21.78
2019-04-20T03:01:43.627Z,21.74
2019-04-20T03:03:30.709Z,21.75
2019-04-20T03:05:35.229Z,21.76
2019-04-20T03:07:41.473Z,21.79
2019-04-20T03:09:47.237Z,21.79
2019-04-20T03:11:59.765Z,21.83
2019-04-20T03:13:53.159Z,21.80
2019-04-20T03:15:56.461Z,21.78
2019-04-20T03:18:00.085Z,21.75
2019-04-20T03:19:51.625Z,21.78
2019-04-20T03:22:05.185Z,21.78
2019-04-20T03:24:06.442Z,21.80
2019-04-20T03:26:19.133Z,21.82
2019-04-20T03:28:15.518Z,21.82
2019-04-20T03:31:07.449Z,21.81
2019-04-20T03:34:55.384Z,21.80
2019-04-20T03:36:39.761Z,21.82
2019-04-20T03:38:26.282Z,21.80
2019-04-20T03:40:26.359Z,21.78
2019-04-20T03:42:14.197Z,21.79
2019-04-20T03:44:19.172Z,21.77
2019-04-20T03:46:19.978Z,21.80
2019-04-20T03:48:35.932Z,21.81
2019-04-20T03:50:41.201Z,21.79
2019-04-20T03:52:37.282Z,21.77
2019-04-20T03:54:38.666Z,21.77
2019-04-20T03:56:54.454Z,21.77
2019-04-20T03:58:56.548Z,21.77
2019-04-20T04:01:12.594Z,21.79
2019-04-20T04:03:34.946Z,21.78
2019-04-20T04:05:27.927Z,21.84
2019-04-20T04:07:19.479Z,21.85
2019-04-20T04:09:25.719Z,21.89
2019-04-20T04:11:34.072Z,21.89
2019-04-20T04:13:16.796Z,21.90
2019-04-20T04:15:18.772Z,21.91
2019-04-20T04:17:26.464Z,21.90
2019-04-20T04:19:27.989Z,21.91
2019-04-20T04:21:40.798Z,21.93
2019-04-20T04:23:40.408Z,21.95
2019-04-20T04:25:42.733Z,21.94
2019-04-20T04:27:40.658Z,21.91
2019-04-20T04:29:46.814Z,21.85
2019-04-20T04:31:55.451Z,21.82
2019-04-20T04:33:56.915Z,21.81
2019-04-20T04:35:52.726Z,21.81
2019-04-20T04:37:54.981Z,21.80
2019-04-20T04:40:01.016Z,21.78
2019-04-20T04:42:07.456Z,21.78
2019-04-20T04:43:58.718Z,21.78
2019-04-20T04:45:42.652Z,21.80
2019-04-20T04:47:45.100Z,21.80
2019-04-20T04:49:55.229Z,21.80
2019-04-20T04:51:55.288Z,21.80
2019-04-20T04:53:58.022Z,21.80
2019-04-20T04:55:58.306Z,21.77
2019-04-20T04:57:53.703Z,21.77
2019-04-20T04:59:55.278Z,21.79
2019-04-20T05:01:58.147Z,21.77
2019-04-20T05:06:20.962Z,21.78
2019-04-20T05:08:10.137Z,21.78
2019-04-20T05:10:03.559Z,21.77
2019-04-20T05:12:11.774Z,21.76
2019-04-20T05:14:10.947Z,21.70
2019-04-20T05:16:26.078Z,21.73
2019-04-20T05:18:36.063Z,21.75
2019-04-20T05:20:29.037Z,21.80
2019-04-20T05:22:32.346Z,21.82
2019-04-20T05:24:34.960Z,21.84
2019-04-20T05:26:48.479Z,21.88
2019-04-20T05:28:49.150Z,21.92
2019-04-20T05:30:46.875Z,21.96
2019-04-20T05:32:52.460Z,22.00
2019-04-20T05:35:08.109Z,21.96
2019-04-20T05:37:04.748Z,21.95
2019-04-20T05:39:15.857Z,21.92
2019-04-20T05:41:09.893Z,21.88
2019-04-20T05:43:22.902Z,21.86
2019-04-20T05:45:25.217Z,21.82
2019-04-20T05:47:27.035Z,21.79
2019-04-20T05:49:29.998Z,21.76
2019-04-20T05:51:36.180Z,21.77
2019-04-20T05:53:32.617Z,21.78
2019-04-20T05:55:34.513Z,21.77
2019-04-20T05:57:35.075Z,21.77
2019-04-20T05:59:40.914Z,21.80
2019-04-20T06:01:49.987Z,21.82
2019-04-20T06:03:37.157Z,21.83
2019-04-20T06:05:52.292Z,21.82
2019-04-20T06:07:48.870Z,21.77
2019-04-20T06:09:48.189Z,21.76
2019-04-20T06:12:02.693Z,21.74
2019-04-20T06:14:03.700Z,21.71
2019-04-20T06:16:07.422Z,21.72
2019-04-20T06:18:13.245Z,21.71
2019-04-20T06:20:21.801Z,21.65
2019-04-20T06:22:28.518Z,21.64
2019-04-20T06:24:26.721Z,21.60
2019-04-20T06:26:47.599Z,21.58
2019-04-20T06:28:26.736Z,21.54
2019-04-20T06:30:26.250Z,21.52
2019-04-20T06:32:42.592Z,21.53
2019-04-20T06:34:42.521Z,21.58
2019-04-20T06:36:40.818Z,21.58
2019-04-20T06:40:55.628Z,21.65
2019-04-20T06:42:41.054Z,21.68
2019-04-20T06:44:41.299Z,21.72
2019-04-20T06:46:53.634Z,21.78
2019-04-20T06:48:49.974Z,21.81
2019-04-20T06:50:47.061Z,21.83
2019-04-20T06:52:52.548Z,21.86
2019-04-20T06:54:59.323Z,21.91
2019-04-20T06:57:05.862Z,21.93
2019-04-20T06:59:12.284Z,21.94
2019-04-20T07:01:13.700Z,22.01
2019-04-20T07:03:26.217Z,22.18
2019-04-20T07:05:13.083Z,22.04
2019-04-20T07:07:14.671Z,21.89
2019-04-20T07:09:35.017Z,21.51
2019-04-20T07:11:22.291Z,21.90
2019-04-20T07:13:11.591Z,21.93
2019-04-20T07:15:16.290Z,21.94
2019-04-20T07:17:32.972Z,21.96
2019-04-20T07:19:24.035Z,21.96
2019-04-20T07:21:51.920Z,21.94
2019-04-20T07:23:48.222Z,21.95
2019-04-20T07:25:52.873Z,21.94
2019-04-20T07:27:53.647Z,21.92
2019-04-20T07:29:56.519Z,21.71
2019-04-20T07:31:48.758Z,22.18
2019-04-20T07:33:56.844Z,22.02
2019-04-20T07:35:56.267Z,21.89
2019-04-20T07:38:23.444Z,21.79
2019-04-20T07:40:01.084Z,21.74
2019-04-20T07:42:08.227Z,21.72
2019-04-20T07:44:11.862Z,21.74
2019-04-20T07:46:10.396Z,21.78
2019-04-20T07:48:13.142Z,21.84
2019-04-20T07:50:04.605Z,21.93
2019-04-20T07:51:50.413Z,21.99
2019-04-20T07:54:21.926Z,22.03
2019-04-20T07:56:14.741Z,22.06
2019-04-20T07:58:09.778Z,22.08
2019-04-20T08:00:17.555Z,22.09
2019-04-20T08:02:43.588Z,22.10
2019-04-20T08:04:52.426Z,22.09
2019-04-20T08:06:43.120Z,22.06
2019-04-20T08:08:55.651Z,22.07
2019-04-20T08:10:53.818Z,22.09
2019-04-20T08:15:13.304Z,22.12
2019-04-20T08:19:05.208Z,22.20
2019-04-20T08:21:12.955Z,22.21
2019-04-20T08:23:13.036Z,22.23
2019-04-20T08:25:06.939Z,22.26
2019-04-20T08:26:58.964Z,22.28
2019-04-20T08:29:14.884Z,22.29
2019-04-20T08:31:33.422Z,22.26
2019-04-20T08:33:47.204Z,22.28
2019-04-20T08:35:48.868Z,22.26
2019-04-20T08:38:01.833Z,22.26
2019-04-20T08:39:59.023Z,22.24
2019-04-20T08:41:56.433Z,22.21
2019-04-20T08:44:05.152Z,22.19
2019-04-20T08:45:50.959Z,22.18
2019-04-20T08:47:57.038Z,22.16
2019-04-20T08:50:05.081Z,22.15
2019-04-20T08:54:00.050Z,22.11
2019-04-20T08:55:56.773Z,22.09
2019-04-20T08:57:44.376Z,22.09
2019-04-20T08:59:48.254Z,22.07
2019-04-20T09:01:46.796Z,22.05
2019-04-20T09:04:00.856Z,22.04
2019-04-20T09:05:59.495Z,21.97
2019-04-20T09:08:02.499Z,21.77
2019-04-20T09:10:16.373Z,21.37
2019-04-20T09:12:11.885Z,20.24
2019-04-20T09:14:00.138Z,20.14
2019-04-20T09:15:58.091Z,20.93
2019-04-20T09:18:05.013Z,21.37
2019-04-20T09:20:09.620Z,21.46
2019-04-20T09:22:18.851Z,21.50
2019-04-20T09:24:36.841Z,21.52
2019-04-20T09:26:35.463Z,21.29
2019-04-20T09:28:25.544Z,21.59
2019-04-20T09:30:27.887Z,21.62
2019-04-20T09:32:36.174Z,21.68
2019-04-20T09:34:41.731Z,21.75
2019-04-20T09:36:37.488Z,21.74
2019-04-20T09:38:46.418Z,21.79
2019-04-20T09:40:50.382Z,21.85
2019-04-20T09:42:37.666Z,21.85
2019-04-20T09:44:42.869Z,21.80
2019-04-20T09:46:46.034Z,21.79
2019-04-20T09:48:49.114Z,21.78
2019-04-20T09:51:04.978Z,21.80
2019-04-20T09:53:02.409Z,21.78
2019-04-20T09:55:03.178Z,21.77
2019-04-20T09:57:11.744Z,21.76
2019-04-20T09:59:08.194Z,21.74
2019-04-20T10:01:07.415Z,21.75
2019-04-20T10:02:54.676Z,21.75
2019-04-20T10:04:55.859Z,21.72
2019-04-20T10:07:02.310Z,21.68
2019-04-20T10:09:02.850Z,21.57
2019-04-20T10:11:01.616Z,21.33
2019-04-20T10:13:05.563Z,21.56
2019-04-20T10:15:12.182Z,21.55
2019-04-20T10:17:07.771Z,21.52
2019-04-20T10:19:11.443Z,21.54
2019-04-20T10:21:09.873Z,21.56
2019-04-20T10:23:12.440Z,21.58
2019-04-20T10:25:13.104Z,21.63
2019-04-20T10:27:14.704Z,21.69
2019-04-20T10:29:17.448Z,21.71
2019-04-20T10:31:17.988Z,21.76
2019-04-20T10:33:19.635Z,21.74
2019-04-20T10:35:21.374Z,21.75
2019-04-20T10:37:23.903Z,21.72
2019-04-20T10:39:24.626Z,21.69
2019-04-20T10:41:36.093Z,21.67
2019-04-20T10:43:28.163Z,21.52
2019-04-20T10:45:30.800Z,21.68
2019-04-20T10:47:31.199Z,21.69
2019-04-20T10:49:33.248Z,21.67
2019-04-20T10:51:35.603Z,21.50
2019-04-20T10:53:36.693Z,21.65
2019-04-20T10:55:37.803Z,21.64
2019-04-20T10:57:39.709Z,21.62
2019-04-20T10:59:41.528Z,21.60
2019-04-20T11:01:43.417Z,21.59
2019-04-20T11:03:44.850Z,21.58
2019-04-20T11:05:46.780Z,21.60
2019-04-20T11:07:48.430Z,21.58
2019-04-20T11:10:02.290Z,21.57
2019-04-20T11:11:52.184Z,21.57
2019-04-20T11:13:53.153Z,21.57
2019-04-20T11:15:54.683Z,21.57
2019-04-20T11:17:57.446Z,21.67
2019-04-20T11:19:59.105Z,21.60
2019-04-20T11:21:59.466Z,21.55
2019-04-20T11:24:02.263Z,21.52
2019-04-20T11:26:02.722Z,21.41
2019-04-20T11:28:04.321Z,21.44
2019-04-20T11:30:05.932Z,21.46
2019-04-20T11:32:07.520Z,21.46
2019-04-20T11:34:10.255Z,21.46
2019-04-20T11:36:10.809Z,21.51
2019-04-20T11:38:14.256Z,21.53
2019-04-20T11:40:15.027Z,21.52
2019-04-20T11:42:15.761Z,21.53
2019-04-20T11:44:17.918Z,21.54
2019-04-20T11:46:19.020Z,21.59
2019-04-20T11:48:21.289Z,21.66
2019-04-20T11:50:22.280Z,21.70
2019-04-20T11:52:25.430Z,21.62
2019-04-20T11:54:26.356Z,21.81
2019-04-20T11:56:32.983Z,21.81
2019-04-20T11:58:30.237Z,21.73
2019-04-20T12:00:37.075Z,21.72
2019-04-20T12:02:39.792Z,21.79
2019-04-20T12:04:44.207Z,21.39
2019-04-20T12:06:39.289Z,21.78
2019-04-20T12:08:42.730Z,21.79
2019-04-20T12:10:44.706Z,21.88
2019-04-20T12:12:48.754Z,22.03
2019-04-20T12:14:46.451Z,22.15
2019-04-20T12:16:47.816Z,22.54
2019-04-20T12:18:50.209Z,22.67
2019-04-20T12:20:50.873Z,22.50
2019-04-20T12:22:52.634Z,22.40
2019-04-20T12:24:54.183Z,22.31
2019-04-20T12:26:56.521Z,22.11
2019-04-20T12:28:57.963Z,22.05
2019-04-20T12:31:04.137Z,21.90
2019-04-20T12:33:02.189Z,21.73
2019-04-20T12:35:02.644Z,21.78
2019-04-20T12:37:05.010Z,21.79
2019-04-20T12:39:06.903Z,21.82
2019-04-20T12:41:09.180Z,21.83
2019-04-20T12:43:09.086Z,21.81
2019-04-20T12:45:11.504Z,21.78
2019-04-20T12:47:12.335Z,21.76
2019-04-20T12:49:13.953Z,21.73
2019-04-20T12:51:15.636Z,21.73
2019-04-20T12:53:17.246Z,21.74
2019-04-20T12:55:18.877Z,21.76
2019-04-20T12:57:20.745Z,21.70
2019-04-20T12:59:23.347Z,21.70
2019-04-20T13:01:25.770Z,21.70
2019-04-20T13:03:25.645Z,21.68
2019-04-20T13:05:27.707Z,21.43
2019-04-20T13:07:31.599Z,21.71
2019-04-20T13:09:30.673Z,21.70
2019-04-20T13:11:44.383Z,21.64
2019-04-20T13:13:44.609Z,21.59
2019-04-20T13:16:02.539Z,21.52
2019-04-20T13:18:03.287Z,21.48
2019-04-20T13:20:05.883Z,21.51
2019-04-20T13:22:07.352Z,21.52
2019-04-20T13:24:09.265Z,21.50
2019-04-20T13:26:11.027Z,21.48
2019-04-20T13:28:11.265Z,21.46
2019-04-20T13:30:13.240Z,21.44
2019-04-20T13:32:15.845Z,21.43
2019-04-20T13:34:17.294Z,21.42
2019-04-20T13:36:17.883Z,21.41
2019-04-20T13:38:20.354Z,21.39
2019-04-20T13:40:21.814Z,21.39
2019-04-20T13:42:26.616Z,21.38
2019-04-20T13:44:24.500Z,21.37
2019-04-20T13:46:27.132Z,21.36
2019-04-20T13:48:28.780Z,21.35
2019-04-20T13:50:29.568Z,21.34
2019-04-20T13:52:31.076Z,21.32
2019-04-20T13:54:33.660Z,21.33
2019-04-20T13:56:35.300Z,21.33
2019-04-20T13:58:41.592Z,21.34
2019-04-20T14:00:50.924Z,21.36
2019-04-20T14:03:09.004Z,21.33
2019-04-20T14:05:10.829Z,21.29
2019-04-20T14:07:14.165Z,21.25
2019-04-20T14:09:13.362Z,21.23
2019-04-20T14:11:15.589Z,21.25
2019-04-20T14:13:19.205Z,21.26
2019-04-20T14:15:19.394Z,21.26
2019-04-20T14:17:21.126Z,21.28
2019-04-20T14:19:23.067Z,21.26
2019-04-20T14:21:23.963Z,21.26
2019-04-20T14:23:25.242Z,21.25
2019-04-20T14:25:41.264Z,21.09
2019-04-20T14:27:42.963Z,21.21
2019-04-20T14:29:46.296Z,21.16
2019-04-20T14:31:46.322Z,21.13
2019-04-20T14:33:48.779Z,21.08
2019-04-20T14:35:50.615Z,21.05
2019-04-20T14:37:52.091Z,21.04
2019-04-20T14:39:54.360Z,21.06
2019-04-20T14:41:54.586Z,21.06
2019-04-20T14:43:57.289Z,21.02
2019-04-20T14:45:58.759Z,20.96
2019-04-20T14:47:59.608Z,20.95
2019-04-20T14:50:03.117Z,20.98
2019-04-20T14:52:04.182Z,20.98
2019-04-20T14:54:05.557Z,20.98
2019-04-20T14:56:07.269Z,20.98
2019-04-20T14:58:07.913Z,20.98
2019-04-20T15:00:15.290Z,20.95
2019-04-20T15:02:17.396Z,21.24
2019-04-20T15:04:21.508Z,21.44
2019-04-20T15:06:20.244Z,21.54
2019-04-20T15:08:22.825Z,21.32
2019-04-20T15:10:24.752Z,21.15
2019-04-20T15:12:37.775Z,21.05
2019-04-20T15:14:26.916Z,20.99
2019-04-20T15:16:28.716Z,20.95
2019-04-20T15:18:35.343Z,20.89
2019-04-20T15:20:37.455Z,20.89
2019-04-20T15:22:41.403Z,20.84
2019-04-20T15:24:42.600Z,20.83
2019-04-20T15:26:44.512Z,20.80
2019-04-20T15:28:46.243Z,20.79
2019-04-20T15:30:47.971Z,20.77
2019-04-20T15:32:49.292Z,20.75
2019-04-20T15:34:50.984Z,20.76
2019-04-20T15:36:52.360Z,20.74
2019-04-20T15:38:53.960Z,20.73
2019-04-20T15:40:55.571Z,20.72
2019-04-20T15:43:05.886Z,20.71
2019-04-20T15:44:58.859Z,20.68
2019-04-20T15:47:01.436Z,20.72
2019-04-20T15:49:02.194Z,20.69
2019-04-20T15:51:03.795Z,20.65
2019-04-20T15:53:05.921Z,20.60
2019-04-20T15:55:16.947Z,20.57
2019-04-20T15:57:15.056Z,20.52
2019-04-20T15:59:10.573Z,20.48
2019-04-20T16:01:12.252Z,20.46
2019-04-20T16:03:19.338Z,20.46
2019-04-20T16:05:40.812Z,20.44
2019-04-20T16:07:50.155Z,20.43
2019-04-20T16:09:44.310Z,20.42
2019-04-20T16:11:44.884Z,20.41
2019-04-20T16:13:50.045Z,20.39
2019-04-20T16:15:47.980Z,20.37
2019-04-20T16:17:53.011Z,20.34
2019-04-20T16:20:00.330Z,20.33
2019-04-20T16:21:53.981Z,20.33
2019-04-20T16:23:54.880Z,20.30
2019-04-20T16:26:01.743Z,20.28
2019-04-20T16:28:03.596Z,20.26
2019-04-20T16:30:05.415Z,20.23
2019-04-20T16:32:06.711Z,20.21
2019-04-20T16:34:07.705Z,20.19
2019-04-20T16:36:10.014Z,20.18
2019-04-20T16:38:10.738Z,20.15
2019-04-20T16:40:13.602Z,20.14
2019-04-20T16:42:14.264Z,20.11
2019-04-20T16:44:17.412Z,20.09
2019-04-20T16:46:20.530Z,20.08
2019-04-20T16:48:19.949Z,20.06
2019-04-20T16:50:20.963Z,20.05
2019-04-20T16:52:23.031Z,20.03
2019-04-20T16:54:24.235Z,20.02
2019-04-20T16:56:26.548Z,19.97
2019-04-20T16:58:28.138Z,19.98
2019-04-20T17:00:29.459Z,19.96
2019-04-20T17:02:31.868Z,19.94
2019-04-20T17:04:33.756Z,20.00
2019-04-20T17:06:34.241Z,20.08
2019-04-20T17:08:36.820Z,20.56
2019-04-20T17:10:37.475Z,20.94
2019-04-20T17:12:39.935Z,21.03
2019-04-20T17:14:40.792Z,21.12
2019-04-20T17:16:43.793Z,21.37
2019-04-20T17:18:45.641Z,21.37
2019-04-20T17:20:46.594Z,21.40
2019-04-20T17:22:48.643Z,21.65
2019-04-20T17:24:49.792Z,21.53
2019-04-20T17:26:55.058Z,21.34
2019-04-20T17:29:13.632Z,21.69
2019-04-20T17:31:17.530Z,21.66
2019-04-20T17:33:21.288Z,21.80
2019-04-20T17:35:34.656Z,21.74
2019-04-20T17:37:22.776Z,21.73
2019-04-20T17:39:35.903Z,21.74
2019-04-20T17:41:47.441Z,21.74
2019-04-20T17:43:37.365Z,21.73
2019-04-20T17:45:41.489Z,21.48
2019-04-20T17:47:52.834Z,21.23
2019-04-20T17:49:49.272Z,21.16
2019-04-20T17:51:59.238Z,21.11
2019-04-20T17:53:54.811Z,21.07
2019-04-20T17:55:50.032Z,21.05
2019-04-20T17:57:51.086Z,21.00
2019-04-20T17:59:58.693Z,20.99
2019-04-20T18:02:22.458Z,20.92
2019-04-20T18:04:49.052Z,20.82
2019-04-20T18:06:34.870Z,20.86
2019-04-20T18:08:43.700Z,20.90
2019-04-20T18:10:40.364Z,20.92
2019-04-20T18:12:32.769Z,20.93
2019-04-20T18:14:43.179Z,20.90
2019-04-20T18:16:56.953Z,20.92
2019-04-20T18:19:06.130Z,21.11
2019-04-20T18:21:01.052Z,21.78
2019-04-20T18:23:02.567Z,21.94
2019-04-20T18:25:25.136Z,22.16
2019-04-20T18:27:28.909Z,22.14
2019-04-20T18:29:29.248Z,22.02
2019-04-20T18:31:11.702Z,22.01
2019-04-20T18:33:13.683Z,22.05
2019-04-20T18:35:18.200Z,22.09
2019-04-20T18:37:21.366Z,22.09
2019-04-20T18:39:29.148Z,22.05
2019-04-20T18:41:31.878Z,22.05
2019-04-20T18:43:27.103Z,22.03
2019-04-20T18:45:41.043Z,22.05
2019-04-20T18:47:48.042Z,22.06
2019-04-20T18:49:43.428Z,22.09
2019-04-20T18:51:30.053Z,22.08
2019-04-20T18:53:38.741Z,22.08
2019-04-20T18:55:41.780Z,22.07
2019-04-20T18:57:36.315Z,22.13
2019-04-20T18:59:45.005Z,22.15
2019-04-20T19:01:42.863Z,22.16
2019-04-20T19:03:43.716Z,22.18
2019-04-20T19:05:42.115Z,22.34
2019-04-20T19:07:53.926Z,22.33
2019-04-20T19:09:45.009Z,22.31
2019-04-20T19:11:54.683Z,22.31
2019-04-20T19:13:56.440Z,22.32
2019-04-20T19:16:23.247Z,22.31
2019-04-20T19:18:33.463Z,22.11
2019-04-20T19:20:23.795Z,21.87
2019-04-20T19:22:23.930Z,21.93
2019-04-20T19:24:29.186Z,22.06
2019-04-20T19:26:27.264Z,22.21
2019-04-20T19:28:33.325Z,22.27
2019-04-20T19:30:37.641Z,22.34
2019-04-20T19:32:45.321Z,22.32
2019-04-20T19:34:46.389Z,22.35
2019-04-20T19:36:41.426Z,22.39
2019-04-20T19:38:49.669Z,22.40
2019-04-20T19:40:47.778Z,22.37
2019-04-20T19:42:55.803Z,22.42
2019-04-20T19:44:53.919Z,22.42
2019-04-20T19:47:04.891Z,22.44
2019-04-20T19:48:52.729Z,22.44
2019-04-20T19:51:09.804Z,22.39
2019-04-20T19:53:16.445Z,22.34
2019-04-20T19:55:08.183Z,22.38
2019-04-20T19:57:07.839Z,22.38
2019-04-20T19:59:07.179Z,22.11
2019-04-20T20:00:57.723Z,22.22
2019-04-20T20:02:57.389Z,22.65
2019-04-20T20:05:04.090Z,22.60
2019-04-20T20:07:04.020Z,22.82
2019-04-20T20:09:05.834Z,22.64
2019-04-20T20:11:04.908Z,22.31
2019-04-20T20:13:06.079Z,22.12
2019-04-20T20:15:13.823Z,22.33
2019-04-20T20:17:26.838Z,22.33
2019-04-20T20:19:21.345Z,22.34
2019-04-20T20:21:23.484Z,22.39
2019-04-20T20:23:14.109Z,22.48
2019-04-20T20:25:14.965Z,22.48
2019-04-20T20:27:26.439Z,22.50
2019-04-20T20:29:26.206Z,22.51
2019-04-20T20:31:29.662Z,22.48
2019-04-20T20:33:39.210Z,22.45
2019-04-20T20:35:26.005Z,22.44
2019-04-20T20:37:33.761Z,22.42
2019-04-20T20:39:31.060Z,22.40
2019-04-20T20:41:38.578Z,22.58
2019-04-20T20:43:47.461Z,22.59
2019-04-20T20:45:38.420Z,22.53
2019-04-20T20:47:55.296Z,22.49
2019-04-20T20:50:02.859Z,22.48
2019-04-20T20:51:54.337Z,22.62
2019-04-20T20:53:51.030Z,22.70
2019-04-20T20:55:44.075Z,22.75
2019-04-20T20:57:49.468Z,22.78
2019-04-20T20:59:54.823Z,22.65
2019-04-20T21:01:52.398Z,22.59
2019-04-20T21:03:49.018Z,22.54
2019-04-20T21:05:47.684Z,22.50
2019-04-20T21:07:51.215Z,22.53
2019-04-20T21:09:52.311Z,22.55
2019-04-20T21:12:00.709Z,22.55
2019-04-20T21:13:55.742Z,22.53
2019-04-20T21:16:02.529Z,22.50
2019-04-20T21:18:20.572Z,22.53
2019-04-20T21:20:15.693Z,22.52
2019-04-20T21:22:08.436Z,22.50
2019-04-20T21:24:10.869Z,22.49
2019-04-20T21:26:06.987Z,22.53
2019-04-20T21:28:08.906Z,22.51
2019-04-20T21:30:17.205Z,22.52
2019-04-20T21:32:14.718Z,22.58
2019-04-20T21:34:18.663Z,22.29
2019-04-20T21:36:20.727Z,22.12
2019-04-20T21:38:18.569Z,21.97
2019-04-20T21:40:27.848Z,22.01
2019-04-20T21:42:23.435Z,22.07
2019-04-20T21:44:25.754Z,22.01
2019-04-20T21:46:24.788Z,21.92
2019-04-20T21:48:40.543Z,21.83
2019-04-20T21:50:45.309Z,21.77
2019-04-20T21:52:37.247Z,21.71
2019-04-20T21:54:30.144Z,21.68
2019-04-20T21:56:31.764Z,21.61
2019-04-20T21:58:42.672Z,21.23
2019-04-20T22:00:42.605Z,21.57
2019-04-20T22:02:43.798Z,21.26
2019-04-20T22:04:45.265Z,21.50
2019-04-20T22:06:47.076Z,21.47
2019-04-20T22:08:59.784Z,21.44
2019-04-20T22:10:57.644Z,21.37
2019-04-20T22:13:00.974Z,21.35
2019-04-20T22:15:07.470Z,21.31
2019-04-20T22:17:03.657Z,21.27
2019-04-20T22:19:17.266Z,21.24
2019-04-20T22:21:16.638Z,21.19
2019-04-20T22:23:22.852Z,21.17
2019-04-20T22:25:28.261Z,21.15
2019-04-20T22:27:18.552Z,21.14
2019-04-20T22:29:12.095Z,21.14
2019-04-20T22:31:14.096Z,21.14
2019-04-20T22:33:22.801Z,21.16
2019-04-20T22:35:19.228Z,21.17
2019-04-20T22:37:24.743Z,21.17
2019-04-20T22:39:24.550Z,21.19
2019-04-20T22:41:26.072Z,20.81
2019-04-20T22:43:31.285Z,21.20
2019-04-20T22:45:27.288Z,21.20
2019-04-20T22:47:31.855Z,21.19
2019-04-20T22:49:46.746Z,21.18
2019-04-20T22:51:47.479Z,21.15
2019-04-20T22:53:45.071Z,21.13
2019-04-20T22:55:59.739Z,21.11
2019-04-20T22:57:48.417Z,21.11
2019-04-20T22:59:48.429Z,21.12
2019-04-20T23:01:46.501Z,21.12
2019-04-20T23:03:41.335Z,21.17
2019-04-20T23:05:42.910Z,21.21
2019-04-20T23:07:44.518Z,21.27
2019-04-20T23:09:52.729Z,21.32
2019-04-20T23:11:47.737Z,21.32
2019-04-20T23:13:51.411Z,21.29
2019-04-20T23:15:56.477Z,21.25
2019-04-20T23:17:53.918Z,21.26
2019-04-20T23:19:58.228Z,21.25
2019-04-20T23:22:01.239Z,21.22
2019-04-20T23:24:00.477Z,21.21
2019-04-20T23:25:59.283Z,21.18
2019-04-20T23:28:07.697Z,21.17
2019-04-20T23:30:11.244Z,21.16
2019-04-20T23:32:07.685Z,21.15
2019-04-20T23:34:10.136Z,21.15
2019-04-20T23:36:08.490Z,21.20
2019-04-20T23:38:14.416Z,21.23
2019-04-20T23:40:13.209Z,21.31
2019-04-20T23:42:14.353Z,21.36
2019-04-20T23:44:19.056Z,21.44
2019-04-20T23:46:26.030Z,21.51
2019-04-20T23:48:28.499Z,21.53
2019-04-20T23:50:40.945Z,21.52
2019-04-20T23:52:48.788Z,21.51
2019-04-20T23:54:30.229Z,21.50
2019-04-20T23:56:29.935Z,21.48
2019-04-20T23:58:38.109Z,21.46
